Time;durP1;ratioP1;P1;durP2;ratioP2;P2;SDS_P1;SDS_P2;PMS_P1;PMS_P2;Temp;Humidity;BMP_temperature;BMP_pressure;BME280_temperature;BME280_humidity;BME280_pressure;Samples;Min_cycle;Max_cycle;Signal;HPM_P1;HPM_P2
2023/01/18 00:00:33;;;;;;;2.27;0.90;;;;;;;12.69;46.26;93261.16;4991823;28;21022;-68
2023/01/18 00:02:59;;;;;;;3.40;1.03;;;;;;;12.60;46.79;93242.13;4997270;28;20232;-68
2023/01/18 00:05:24;;;;;;;2.13;0.90;;;;;;;12.62;46.68;93266.44;4994642;28;20228;-68
2023/01/18 00:07:53;;;;;;;1.23;0.90;;;;;;;12.58;47.27;93247.56;4990691;28;20227;-69
2023/01/18 00:10:19;;;;;;;2.20;1.03;;;;;;;12.52;47.82;93273.97;5000435;28;20247;-68
2023/01/18 00:12:44;;;;;;;1.50;0.87;;;;;;;12.56;48.00;93264.63;4994414;28;20235;-69
2023/01/18 00:15:10;;;;;;;1.50;0.90;;;;;;;12.77;46.15;93197.63;4988236;28;20237;-69
2023/01/18 00:17:46;;;;;;;3.77;0.80;;;;;;;12.54;47.20;93271.94;4989556;28;20455;-68
2023/01/18 00:20:15;;;;;;;1.20;0.70;;;;;;;12.50;46.96;93260.19;5025035;28;20273;-68
2023/01/18 00:22:41;;;;;;;1.23;0.80;;;;;;;12.62;47.29;93292.81;4987367;28;20258;-69
2023/01/18 00:25:09;;;;;;;2.73;0.87;;;;;;;12.59;46.71;93261.59;4989870;28;20244;-69
2023/01/18 00:27:39;;;;;;;3.37;1.20;;;;;;;12.66;47.00;93272.91;4996412;28;20184;-67
2023/01/18 00:30:07;;;;;;;2.73;0.77;;;;;;;12.77;46.17;93276.75;4992941;28;20299;-68
2023/01/18 00:32:33;;;;;;;1.20;0.63;;;;;;;12.65;47.62;93247.56;4989628;28;20286;-69
2023/01/18 00:34:59;;;;;;;2.80;0.90;;;;;;;12.65;46.51;93249.41;4969853;28;20244;-68
2023/01/18 00:37:27;;;;;;;2.17;0.80;;;;;;;12.65;47.29;93242.31;4971146;28;20331;-69
2023/01/18 00:39:53;;;;;;;2.77;1.00;;;;;;;12.64;47.01;93242.50;4970325;28;20184;-68
2023/01/18 00:45:02;;;;;;;3.03;0.87;;;;;;;12.67;46.72;93224.44;4970215;28;20274;-69
2023/01/18 00:47:28;;;;;;;3.17;0.80;;;;;;;12.60;46.92;93236.84;4972598;28;20220;-69
2023/01/18 00:49:53;;;;;;;3.00;0.90;;;;;;;12.61;47.44;93238.44;5001043;28;20572;-69
2023/01/18 00:52:19;;;;;;;7.90;1.00;;;;;;;12.64;47.03;93253.84;4988653;28;20285;-69
2023/01/18 00:54:44;;;;;;;1.87;0.73;;;;;;;12.64;47.46;93232.75;4986982;28;20659;-68
2023/01/18 00:57:09;;;;;;;3.20;0.90;;;;;;;12.71;47.38;93233.56;5009604;28;20194;-69
2023/01/18 00:59:35;;;;;;;2.57;0.80;;;;;;;12.65;46.90;93200.09;4989802;28;20219;-69
2023/01/18 01:02:00;;;;;;;3.03;0.70;;;;;;;12.63;46.46;93249.59;5011200;28;20228;-69
2023/01/18 01:07:10;;;;;;;2.37;0.80;;;;;;;12.62;46.83;93253.28;4968618;28;20246;-69
2023/01/18 01:09:35;;;;;;;2.10;0.73;;;;;;;12.67;47.37;93273.72;5001065;28;20220;-69
2023/01/18 01:26:07;;;;;;;2.73;1.00;;;;;;;12.63;46.88;93243.53;4969917;28;20231;-68
2023/01/18 01:28:37;;;;;;;1.80;0.73;;;;;;;12.66;46.79;93269.47;5000576;28;20223;-67
2023/01/18 01:31:05;;;;;;;1.20;0.73;;;;;;;12.69;47.19;93246.13;4970120;28;20251;-67
2023/01/18 01:33:32;;;;;;;3.60;0.67;;;;;;;12.69;47.79;93235.56;4996365;28;20207;-67
2023/01/18 01:36:00;;;;;;;2.33;0.60;;;;;;;12.76;47.43;93268.03;4998976;28;20245;-67
2023/01/18 01:38:26;;;;;;;2.87;0.80;;;;;;;12.68;47.06;93260.34;5011219;28;20294;-67
2023/01/18 01:41:01;;;;;;;1.97;1.00;;;;;;;12.88;46.19;93246.25;4969686;28;20228;-67
2023/01/18 01:44:03;;;;;;;2.13;0.90;;;;;;;12.96;46.55;93259.22;4969174;28;20227;-67
2023/01/18 01:46:28;;;;;;;1.90;0.80;;;;;;;12.78;47.19;93273.09;4958569;28;20219;-68
2023/01/18 01:49:02;;;;;;;3.73;0.90;;;;;;;12.82;46.84;93237.38;4981929;28;20557;-68
2023/01/18 01:51:28;;;;;;;4.43;1.00;;;;;;;12.83;46.90;93264.53;4967969;28;20549;-68
2023/01/18 01:53:58;;;;;;;1.97;0.90;;;;;;;12.83;47.57;93260.09;4960134;28;20228;-68
2023/01/18 01:56:23;;;;;;;2.27;0.67;;;;;;;12.71;46.56;93265.19;4983628;28;20228;-68
2023/01/18 01:58:51;;;;;;;5.70;0.90;;;;;;;12.70;46.24;93260.16;4969942;28;20755;-68
2023/01/18 02:01:17;;;;;;;5.65;1.02;;;;;;;12.75;46.99;93255.03;4971193;28;20229;-69
2023/01/18 02:03:42;;;;;;;4.30;0.97;;;;;;;12.78;46.52;93231.72;4971369;28;20266;-68
2023/01/18 02:06:30;;;;;;;4.55;0.60;;;;;;;12.82;46.50;93224.19;4968500;28;20278;-68
2023/01/18 02:08:57;;;;;;;8.47;1.43;;;;;;;12.89;46.21;93229.44;4969602;28;20232;-68
2023/01/18 02:11:22;;;;;;;4.83;1.00;;;;;;;12.87;46.03;93211.16;4969980;28;20258;-68
2023/01/18 02:13:48;;;;;;;6.23;0.80;;;;;;;12.91;45.68;93238.75;4984222;28;21068;-68
2023/01/18 02:16:31;;;;;;;3.13;0.80;;;;;;;12.88;46.40;93204.06;4969808;28;20240;-68
2023/01/18 02:19:12;;;;;;;1.60;0.60;;;;;;;12.95;46.43;93236.50;4969245;28;20188;-67
2023/01/18 02:21:56;;;;;;;4.57;1.00;;;;;;;12.91;46.41;93251.13;4967146;28;20197;-68
2023/01/18 02:24:34;;;;;;;6.00;1.03;;;;;;;12.78;46.83;93244.91;4988623;28;20218;-69
2023/01/18 02:27:04;;;;;;;2.70;0.83;;;;;;;12.91;46.57;93243.22;4997888;28;20223;-68
2023/01/18 02:29:48;;;;;;;2.97;0.77;;;;;;;12.90;46.60;93228.41;4972933;28;20423;-68
2023/01/18 02:32:14;;;;;;;1.67;0.90;;;;;;;12.90;45.95;93247.69;4998351;28;20315;-68
2023/01/18 02:34:45;;;;;;;2.93;0.93;;;;;;;12.92;45.66;93260.66;4984967;28;20319;-68
2023/01/18 02:37:32;;;;;;;3.83;0.83;;;;;;;12.91;45.79;93230.03;4966177;28;20236;-69
2023/01/18 02:40:01;;;;;;;1.90;0.83;;;;;;;12.97;46.32;93252.94;4965884;28;20203;-68
2023/01/18 02:48:05;;;;;;;2.80;0.83;;;;;;;13.05;46.35;93262.44;4967945;28;20918;-69
2023/01/18 02:50:31;;;;;;;3.80;0.80;;;;;;;12.99;46.44;93280.75;4971783;28;20287;-69
2023/01/18 02:52:56;;;;;;;2.67;0.80;;;;;;;12.99;45.94;93278.09;4978721;28;20310;-69
2023/01/18 02:55:49;;;;;;;2.10;0.87;;;;;;;12.83;46.52;93272.47;4990658;28;20226;-69
2023/01/18 02:58:30;;;;;;;4.30;0.93;;;;;;;12.91;47.57;93295.97;4987288;28;20215;-69
2023/01/18 03:01:25;;;;;;;4.00;0.87;;;;;;;12.96;47.21;93301.44;4987064;28;20251;-69
2023/01/18 03:03:56;;;;;;;2.00;0.90;;;;;;;12.86;46.79;93323.00;4947706;28;20629;-69
2023/01/18 03:06:26;;;;;;;3.73;1.10;;;;;;;12.83;45.75;93261.91;4930366;29;20201;-69
2023/01/18 03:08:53;;;;;;;2.13;0.73;;;;;;;12.79;45.81;93256.25;4945702;29;20225;-69
2023/01/18 03:11:38;;;;;;;3.13;0.87;;;;;;;12.80;46.18;93234.13;4945405;29;20229;-69
2023/01/18 03:14:13;;;;;;;4.57;1.37;;;;;;;12.78;46.53;93242.25;4914160;29;20264;-69
2023/01/18 03:16:56;;;;;;;1.73;0.90;;;;;;;12.77;46.53;93237.97;4895962;29;20336;-69
2023/01/18 03:22:16;;;;;;;3.00;1.10;;;;;;;12.81;45.75;93233.13;4918310;29;20240;-69
2023/01/18 03:24:44;;;;;;;3.80;0.80;;;;;;;12.85;45.78;93221.13;4901315;29;20612;-70
2023/01/18 03:35:26;;;;;;;4.77;1.40;;;;;;;12.82;45.51;93204.91;4916786;29;20374;-68
2023/01/18 03:37:55;;;;;;;2.08;0.80;;;;;;;12.91;45.56;93230.03;4912847;29;20785;-68
2023/01/18 03:40:25;;;;;;;2.30;0.80;;;;;;;12.90;45.53;93218.66;4931372;28;20232;-69
2023/01/18 03:43:06;;;;;;;2.40;0.70;;;;;;;13.02;45.77;93229.38;4949258;28;20200;-68
2023/01/18 03:45:43;;;;;;;3.45;0.82;;;;;;;12.91;44.88;93224.75;4947291;29;20189;-69
2023/01/18 03:48:10;;;;;;;6.03;1.27;;;;;;;12.90;45.69;93244.25;4953444;28;20216;-69
2023/01/18 03:50:49;;;;;;;1.63;0.80;;;;;;;12.98;45.08;93254.56;4953372;28;20227;-69
2023/01/18 03:53:33;;;;;;;3.13;1.10;;;;;;;12.98;44.84;93242.16;4956127;28;20240;-69
2023/01/18 03:56:22;;;;;;;2.20;0.90;;;;;;;13.04;44.47;93248.44;4950711;28;20291;-69
2023/01/18 03:58:52;;;;;;;1.43;1.00;;;;;;;12.98;45.25;93236.09;4969964;28;20233;-69
2023/01/18 04:01:17;;;;;;;3.40;1.07;;;;;;;13.00;44.55;93219.03;4963624;28;20230;-70
2023/01/18 04:03:43;;;;;;;3.63;0.80;;;;;;;13.00;44.73;93197.91;4963061;28;20181;-69
2023/01/18 04:06:08;;;;;;;3.80;0.87;;;;;;;12.98;44.63;93215.78;4959263;28;20280;-69
2023/01/18 04:08:34;;;;;;;3.47;1.33;;;;;;;12.98;44.35;93218.41;4971119;28;20233;-69
2023/01/18 04:10:59;;;;;;;2.27;0.93;;;;;;;13.12;44.03;93239.47;4955956;28;20232;-69
2023/01/18 04:13:25;;;;;;;6.80;1.43;;;;;;;12.98;44.61;93233.44;4958447;28;20238;-69
2023/01/18 04:15:50;;;;;;;4.20;0.90;;;;;;;13.03;43.87;93225.72;4984689;28;20231;-69
2023/01/18 04:18:15;;;;;;;3.10;1.07;;;;;;;13.17;43.45;93247.56;5006846;28;20191;-69
2023/01/18 04:20:41;;;;;;;5.10;1.10;;;;;;;13.21;43.62;93246.94;4992179;28;20223;-68
2023/01/18 04:23:06;;;;;;;3.80;0.90;;;;;;;13.28;43.56;93220.53;5006894;28;20223;-69
2023/01/18 04:25:32;;;;;;;5.22;1.20;;;;;;;13.15;44.05;93212.66;4993639;28;20713;-68
2023/01/18 04:27:57;;;;;;;7.30;1.40;;;;;;;13.16;43.88;93233.56;5026597;28;20196;-69
2023/01/18 04:30:22;;;;;;;2.55;0.93;;;;;;;13.08;43.76;93217.16;4990472;28;20191;-69
2023/01/18 04:32:48;;;;;;;6.93;1.40;;;;;;;13.22;43.39;93216.06;4986981;28;20849;-68
2023/01/18 04:35:13;;;;;;;3.80;1.00;;;;;;;13.19;43.23;93203.31;5022359;28;20220;-68
2023/01/18 04:37:39;;;;;;;3.93;1.10;;;;;;;13.30;43.07;93207.94;4988889;28;20256;-67
2023/01/18 04:40:05;;;;;;;4.67;1.10;;;;;;;13.31;42.94;93221.94;5005615;28;20243;-67
2023/01/18 04:42:30;;;;;;;6.83;1.10;;;;;;;13.36;42.94;93204.44;4991475;28;20199;-67
2023/01/18 04:44:57;;;;;;;4.93;1.23;;;;;;;13.32;43.15;93240.22;4994933;28;20231;-67
2023/01/18 04:47:22;;;;;;;5.82;1.23;;;;;;;13.34;43.58;93238.19;4992612;28;20286;-67
2023/01/18 04:49:47;;;;;;;6.20;1.27;;;;;;;13.39;43.37;93182.09;4992378;28;20231;-67
2023/01/18 04:52:13;;;;;;;5.00;1.20;;;;;;;13.29;43.60;93187.03;4991422;28;20227;-68
2023/01/18 04:54:38;;;;;;;3.97;1.00;;;;;;;13.29;43.74;93189.69;4992035;28;20690;-67
2023/01/18 04:57:04;;;;;;;2.03;0.80;;;;;;;13.40;43.66;93202.19;4990582;28;20228;-67
2023/01/18 04:59:29;;;;;;;4.07;1.10;;;;;;;13.32;43.56;93199.81;4992871;28;20314;-67
2023/01/18 05:01:54;;;;;;;1.75;0.82;;;;;;;13.22;44.42;93187.84;4987969;28;20223;-69
2023/01/18 05:04:20;;;;;;;2.57;0.77;;;;;;;13.27;43.15;93200.44;5000317;28;21165;-67
2023/01/18 05:06:48;;;;;;;6.50;1.70;;;;;;;13.32;43.20;93194.53;4993865;28;20191;-67
2023/01/18 05:09:14;;;;;;;4.47;1.03;;;;;;;13.36;42.52;93199.16;4988683;28;20192;-67
2023/01/18 05:11:41;;;;;;;7.17;1.53;;;;;;;13.31;43.59;93206.94;5024642;28;20216;-67
2023/01/18 05:14:07;;;;;;;3.90;1.00;;;;;;;13.33;43.55;93223.34;4990634;28;20220;-67
2023/01/18 05:16:33;;;;;;;4.47;1.10;;;;;;;13.32;43.54;93207.72;5018157;28;20216;-67
2023/01/18 05:18:59;;;;;;;6.82;1.40;;;;;;;13.31;43.87;93182.34;4999589;28;20193;-68
2023/01/18 05:21:25;;;;;;;3.77;1.23;;;;;;;13.38;43.38;93210.31;5002213;28;20199;-68
2023/01/18 05:23:50;;;;;;;5.23;1.20;;;;;;;13.36;43.21;93191.22;5002942;28;20224;-68
2023/01/18 05:26:21;;;;;;;6.17;1.60;;;;;;;13.31;43.45;93180.53;5005640;28;20251;-68
2023/01/18 05:28:49;;;;;;;4.25;1.52;;;;;;;13.32;42.96;93183.97;4959393;28;20228;-67
2023/01/18 05:31:16;;;;;;;3.33;1.23;;;;;;;13.35;42.99;93200.19;4972703;28;20216;-68
2023/01/18 05:33:42;;;;;;;2.70;0.80;;;;;;;13.42;42.50;93200.97;4963539;28;20196;-68
2023/01/18 05:36:07;;;;;;;3.10;0.70;;;;;;;13.35;42.70;93231.88;4970958;28;20311;-68
2023/01/18 05:38:33;;;;;;;3.50;1.00;;;;;;;13.44;42.50;93258.81;4970973;28;20263;-68
2023/01/18 05:40:58;;;;;;;4.63;1.13;;;;;;;13.46;42.16;93241.75;5002668;28;20401;-68
2023/01/18 05:43:26;;;;;;;6.15;1.10;;;;;;;13.54;42.56;93235.41;5007342;28;20312;-68
2023/01/18 05:45:52;;;;;;;6.32;1.58;;;;;;;13.45;43.05;93228.78;4968613;28;20311;-68
2023/01/18 05:48:17;;;;;;;4.00;1.27;;;;;;;13.40;42.52;93236.50;4991530;28;20644;-68
2023/01/18 05:50:45;;;;;;;7.83;1.40;;;;;;;13.46;42.38;93228.53;5023714;28;20223;-68
2023/01/18 05:53:13;;;;;;;3.43;1.00;;;;;;;13.48;42.51;93235.47;5007621;28;20762;-68
2023/01/18 05:55:39;;;;;;;4.45;1.13;;;;;;;13.49;42.52;93226.50;4998320;28;20243;-67
2023/01/18 05:58:05;;;;;;;5.82;1.20;;;;;;;13.58;41.94;93257.72;4964943;28;20232;-68
2023/01/18 06:00:30;;;;;;;2.90;1.00;;;;;;;13.58;42.15;93265.66;4968335;28;20231;-68
2023/01/18 06:02:56;;;;;;;3.42;1.23;;;;;;;13.59;42.67;93235.56;4968980;28;20259;-68
2023/01/18 06:05:23;;;;;;;3.90;1.10;;;;;;;13.56;42.44;93243.91;4964911;28;20216;-68
2023/01/18 06:07:49;;;;;;;4.67;1.00;;;;;;;13.54;42.17;93229.31;4978274;28;20228;-68
2023/01/18 06:10:15;;;;;;;4.33;0.97;;;;;;;13.63;42.40;93223.56;4971648;28;20239;-68
2023/01/18 06:12:41;;;;;;;2.70;1.10;;;;;;;13.56;42.80;93230.72;5000233;28;20234;-68
2023/01/18 06:15:07;;;;;;;4.73;1.00;;;;;;;13.55;42.88;93220.34;4983189;28;20240;-68
2023/01/18 06:17:34;;;;;;;5.03;1.13;;;;;;;13.61;42.86;93267.88;4998483;28;20227;-68
2023/01/18 06:19:59;;;;;;;2.60;1.00;;;;;;;13.71;43.42;93274.50;4984029;28;20235;-67
2023/01/18 06:22:25;;;;;;;4.23;1.07;;;;;;;13.60;43.26;93276.78;5013068;28;20227;-67
2023/01/18 06:24:50;;;;;;;7.75;1.33;;;;;;;13.70;43.07;93241.19;5000659;28;20239;-66
2023/01/18 06:27:16;;;;;;;4.93;1.33;;;;;;;13.61;43.34;93235.38;5000233;28;20215;-67
2023/01/18 06:29:41;;;;;;;22.07;2.20;;;;;;;13.67;42.90;93284.69;5004411;28;20224;-69
2023/01/18 06:32:07;;;;;;;5.50;1.27;;;;;;;13.71;43.18;93253.38;4980572;28;20245;-68
2023/01/18 06:34:32;;;;;;;5.27;1.20;;;;;;;13.79;42.87;93231.97;4987177;28;20230;-67
2023/01/18 06:36:58;;;;;;;11.30;1.77;;;;;;;13.75;43.31;93267.78;4987931;28;20227;-68
2023/01/18 06:39:24;;;;;;;5.73;1.33;;;;;;;13.75;43.48;93249.28;4990138;28;20200;-67
2023/01/18 06:41:49;;;;;;;5.20;1.30;;;;;;;13.65;43.89;93269.03;4986469;28;20233;-68
2023/01/18 06:44:15;;;;;;;6.10;1.67;;;;;;;13.66;44.06;93260.13;4990829;28;20227;-67
2023/01/18 06:46:42;;;;;;;5.67;1.33;;;;;;;13.74;43.75;93229.16;5019713;28;20223;-67
2023/01/18 06:49:08;;;;;;;6.27;1.33;;;;;;;13.75;44.11;93238.72;4987192;28;20227;-66
2023/01/18 06:51:33;;;;;;;6.43;1.53;;;;;;;13.75;43.82;93221.03;4987065;28;20200;-67
2023/01/18 06:53:59;;;;;;;7.28;1.83;;;;;;;13.78;43.77;93203.94;4985846;28;20282;-67
2023/01/18 06:56:25;;;;;;;8.48;1.55;;;;;;;13.80;43.84;93210.63;4986805;28;20237;-67
2023/01/18 06:58:51;;;;;;;4.05;1.23;;;;;;;13.76;43.76;93235.84;4990321;28;20231;-67
2023/01/18 07:01:17;;;;;;;6.87;1.40;;;;;;;13.94;43.21;93211.31;4976589;28;20253;-69
2023/01/18 07:03:42;;;;;;;6.03;1.60;;;;;;;13.98;43.38;93203.75;4993654;28;20274;-67
2023/01/18 07:06:07;;;;;;;4.53;1.35;;;;;;;14.08;42.98;93231.31;5004512;28;20235;-67
2023/01/18 07:08:34;;;;;;;3.72;1.25;;;;;;;13.90;43.27;93192.47;4979553;28;20287;-71
2023/01/18 07:11:05;;;;;;;4.43;1.30;;;;;;;13.99;43.21;93222.06;4965246;28;20283;-67
2023/01/18 07:13:30;;;;;;;5.13;1.30;;;;;;;13.96;42.94;93179.41;4969212;28;20241;-66
2023/01/18 07:15:58;;;;;;;6.90;1.33;;;;;;;14.07;42.74;93174.22;4987063;28;20250;-68
2023/01/18 07:18:24;;;;;;;9.23;1.77;;;;;;;14.08;42.74;93227.88;4998410;28;20254;-67
2023/01/18 07:21:01;;;;;;;6.93;1.50;;;;;;;14.09;42.50;93211.81;4990542;28;20231;-68
2023/01/18 07:23:27;;;;;;;8.85;1.83;;;;;;;14.21;42.37;93179.38;4988351;28;20225;-67
2023/01/18 07:26:01;;;;;;;8.13;1.70;;;;;;;14.14;42.55;93179.44;4990679;28;20243;-67
2023/01/18 07:28:27;;;;;;;5.80;1.48;;;;;;;14.21;42.27;93174.88;5022866;28;20358;-65
2023/01/18 07:30:53;;;;;;;6.38;1.58;;;;;;;14.40;42.22;93170.41;4991502;28;20298;-65
2023/01/18 07:33:18;;;;;;;4.85;1.40;;;;;;;14.37;41.85;93159.47;4988891;28;20282;-66
2023/01/18 07:35:44;;;;;;;6.53;1.45;;;;;;;14.40;41.53;93182.84;4993507;28;20269;-67
2023/01/18 07:38:09;;;;;;;4.90;1.20;;;;;;;14.47;41.60;93155.28;5009640;28;20236;-66
2023/01/18 07:40:34;;;;;;;8.18;1.30;;;;;;;14.39;41.85;93240.19;4974317;28;20270;-65
2023/01/18 07:43:01;;;;;;;4.22;1.30;;;;;;;14.52;41.27;93218.13;4971693;28;20184;-66
2023/01/18 07:45:27;;;;;;;7.82;1.25;;;;;;;14.56;41.16;93221.94;4967707;28;20188;-68
2023/01/18 07:47:53;;;;;;;4.90;1.63;;;;;;;14.59;41.52;93244.50;5003924;28;20220;-68
2023/01/18 07:50:20;;;;;;;5.57;1.30;;;;;;;14.57;41.25;93255.31;5001900;28;20228;-68
2023/01/18 07:52:46;;;;;;;6.30;1.52;;;;;;;14.70;40.92;93279.00;4965846;28;20232;-66
2023/01/18 07:55:11;;;;;;;5.72;1.85;;;;;;;14.66;41.21;93256.63;4969549;28;20237;-67
2023/01/18 07:57:36;;;;;;;6.85;1.90;;;;;;;14.67;41.49;93287.34;4970098;28;20196;-66
2023/01/18 08:00:05;;;;;;;5.88;1.80;;;;;;;14.65;40.80;93288.59;4970542;28;20223;-69
2023/01/18 08:02:31;;;;;;;8.55;1.33;;;;;;;14.68;41.47;93272.31;4965595;28;20223;-66
2023/01/18 08:04:56;;;;;;;9.48;1.35;;;;;;;14.69;41.27;93335.56;4971051;28;20217;-66
2023/01/18 08:07:22;;;;;;;7.13;1.45;;;;;;;14.66;41.21;93329.91;4970110;28;20231;-66
2023/01/18 08:09:47;;;;;;;7.40;1.42;;;;;;;14.72;41.00;93323.72;4975131;28;20192;-67
2023/01/18 08:12:16;;;;;;;8.57;1.73;;;;;;;14.69;40.62;93347.97;4971468;28;20220;-67
2023/01/18 08:14:42;;;;;;;3.05;1.20;;;;;;;14.80;40.74;93349.91;4967139;28;20271;-70
2023/01/18 08:17:08;;;;;;;5.10;1.50;;;;;;;14.76;40.96;93373.34;4973620;28;20235;-66
2023/01/18 08:19:34;;;;;;;5.90;1.30;;;;;;;14.74;41.38;93393.94;4975877;28;20290;-66
2023/01/18 08:21:59;;;;;;;5.25;1.70;;;;;;;14.71;41.40;93393.56;5019727;28;20194;-69
2023/01/18 08:24:24;;;;;;;6.53;1.40;;;;;;;14.77;41.20;93376.81;4982755;28;20274;-66
2023/01/18 08:26:50;;;;;;;3.38;0.98;;;;;;;14.74;41.75;93378.03;4989444;28;20219;-65
2023/01/18 08:29:15;;;;;;;5.95;1.30;;;;;;;14.78;41.78;93421.59;4986047;28;20223;-69
2023/01/18 08:31:41;;;;;;;4.25;1.13;;;;;;;14.86;41.44;93378.16;4987985;28;20271;-68
2023/01/18 08:34:06;;;;;;;6.75;1.50;;;;;;;14.87;41.62;93349.84;4988347;28;20235;-69
2023/01/18 08:36:32;;;;;;;6.38;1.80;;;;;;;14.67;42.42;93361.41;4984615;28;20870;-68
2023/01/18 08:38:57;;;;;;;6.93;1.83;;;;;;;14.81;41.48;93351.53;5000943;28;20220;-69
2023/01/18 08:41:27;;;;;;;6.32;1.63;;;;;;;14.90;41.33;93339.63;4969552;28;20306;-68
2023/01/18 08:43:56;;;;;;;6.53;1.40;;;;;;;14.98;41.60;93365.81;5004798;28;20307;-69
2023/01/18 08:46:23;;;;;;;5.90;1.75;;;;;;;14.92;41.47;93345.53;4958573;28;20267;-69
2023/01/18 08:48:53;;;;;;;4.55;1.17;;;;;;;14.86;41.61;93325.25;5000957;28;20192;-67
2023/01/18 08:51:21;;;;;;;4.70;1.53;;;;;;;14.86;41.94;93382.63;5001952;28;20232;-68
2023/01/18 08:53:47;;;;;;;3.78;1.40;;;;;;;14.97;42.06;93335.09;4969233;28;20220;-70
2023/01/18 08:56:13;;;;;;;6.25;1.40;;;;;;;15.06;41.10;93362.06;4970663;28;20592;-66
2023/01/18 08:58:38;;;;;;;7.00;1.48;;;;;;;14.88;41.90;93368.16;4967130;28;20239;-68
2023/01/18 09:01:06;;;;;;;6.30;1.13;;;;;;;14.91;42.23;93394.16;4965693;28;20229;-66
2023/01/18 09:03:31;;;;;;;7.80;1.38;;;;;;;14.99;41.75;93359.50;4961848;28;20192;-67
2023/01/18 09:05:59;;;;;;;6.35;1.88;;;;;;;14.77;41.68;93398.78;4970242;28;20290;-66
2023/01/18 09:08:25;;;;;;;4.88;1.30;;;;;;;14.81;42.18;93383.28;4960272;28;20224;-68
2023/01/18 09:10:50;;;;;;;6.00;1.73;;;;;;;14.87;41.70;93402.78;4969416;28;20228;-68
2023/01/18 09:13:16;;;;;;;7.60;1.42;;;;;;;15.02;41.76;93399.78;5003089;28;20232;-67
2023/01/18 09:15:41;;;;;;;2.63;1.10;;;;;;;14.93;41.65;93409.84;4969168;28;20310;-68
2023/01/18 09:18:07;;;;;;;5.95;1.33;;;;;;;15.04;41.81;93413.63;4968488;28;20327;-67
2023/01/18 09:20:34;;;;;;;7.97;1.75;;;;;;;15.19;41.22;93408.78;4968151;28;20231;-68
2023/01/18 09:23:08;;;;;;;4.30;1.45;;;;;;;15.12;41.35;93427.38;5000381;28;20231;-67
2023/01/18 09:25:35;;;;;;;5.75;1.65;;;;;;;15.04;41.49;93453.31;4999058;28;20303;-67
2023/01/18 09:28:02;;;;;;;5.18;1.30;;;;;;;15.20;41.34;93413.84;4968789;28;20680;-67
2023/01/18 09:30:28;;;;;;;3.80;1.48;;;;;;;15.21;40.96;93410.19;4985394;28;20196;-67
2023/01/18 09:32:55;;;;;;;6.32;1.98;;;;;;;15.20;41.13;93431.56;5000139;28;20277;-68
2023/01/18 09:35:21;;;;;;;6.23;1.60;;;;;;;15.15;41.36;93428.78;4971125;28;20626;-68
2023/01/18 09:37:46;;;;;;;5.25;1.63;;;;;;;15.13;40.89;93502.31;4963339;28;20225;-68
2023/01/18 09:40:20;;;;;;;6.13;1.80;;;;;;;15.19;41.09;93451.16;4982214;28;20259;-70
2023/01/18 09:42:50;;;;;;;3.78;1.50;;;;;;;15.22;41.08;93453.34;4974035;28;20300;-67
2023/01/18 09:45:29;;;;;;;4.38;1.55;;;;;;;15.18;41.31;93452.16;5007919;28;20183;-68
2023/01/18 09:48:04;;;;;;;7.05;1.50;;;;;;;15.07;41.85;93461.63;4988690;28;20246;-69
2023/01/18 09:50:37;;;;;;;5.43;1.30;;;;;;;14.94;41.70;93436.09;5021294;28;20223;-67
2023/01/18 09:53:33;;;;;;;4.22;1.35;;;;;;;15.26;41.11;93430.69;4989540;28;20219;-70
2023/01/18 09:56:18;;;;;;;4.53;1.60;;;;;;;15.36;40.60;93438.94;5018690;28;20314;-69
2023/01/18 09:58:58;;;;;;;4.53;1.70;;;;;;;15.25;40.91;93429.09;5002726;28;20222;-65
2023/01/18 10:01:31;;;;;;;7.35;1.90;;;;;;;15.53;40.53;93412.72;4981408;28;20279;-66
2023/01/18 10:04:15;;;;;;;5.57;1.30;;;;;;;15.46;40.26;93427.84;4985554;28;20234;-65
2023/01/18 10:06:53;;;;;;;6.10;1.70;;;;;;;15.52;40.46;93415.56;4982440;28;20263;-69
2023/01/18 10:09:22;;;;;;;5.82;1.60;;;;;;;15.57;40.07;93426.31;4986065;28;20428;-67
2023/01/18 10:11:59;;;;;;;6.07;1.33;;;;;;;15.66;39.36;93409.91;4986174;28;20335;-66
2023/01/18 10:14:50;;;;;;;7.80;1.55;;;;;;;15.69;39.49;93458.19;5007907;28;20250;-66
2023/01/18 10:17:21;;;;;;;8.30;1.60;;;;;;;15.48;39.70;93435.59;4958942;28;20240;-66
2023/01/18 10:19:47;;;;;;;4.90;1.60;;;;;;;15.42;39.74;93408.97;4968442;28;20235;-65
2023/01/18 10:22:32;;;;;;;8.30;1.80;;;;;;;15.46;39.89;93411.16;4970822;28;20235;-66
2023/01/18 10:25:03;;;;;;;10.43;1.75;;;;;;;15.54;39.01;93419.63;4959312;28;20184;-67
2023/01/18 10:27:47;;;;;;;6.32;1.60;;;;;;;15.63;39.61;93428.06;4964383;28;20211;-68
2023/01/18 10:30:19;;;;;;;7.22;2.17;;;;;;;15.72;39.83;93426.78;5017373;28;20286;-68
2023/01/18 10:32:53;;;;;;;5.20;2.25;;;;;;;15.98;38.89;93432.78;5025178;28;21012;-71
2023/01/18 10:35:28;;;;;;;5.10;1.40;;;;;;;16.04;38.82;93419.44;4989548;28;20245;-69
2023/01/18 10:37:59;;;;;;;9.27;1.88;;;;;;;16.02;37.93;93426.00;5001119;28;20223;-73
2023/01/18 10:40:25;;;;;;;9.25;1.65;;;;;;;16.08;38.80;93430.41;4993385;28;20219;-74
2023/01/18 10:42:55;;;;;;;5.15;1.55;;;;;;;16.16;38.53;93453.16;4984754;28;20235;-73
2023/01/18 10:45:24;;;;;;;6.50;1.70;;;;;;;16.07;38.77;93508.34;4992843;28;20195;-71
2023/01/18 10:47:51;;;;;;;4.28;1.25;;;;;;;16.16;38.08;93490.28;4992251;28;20728;-72
2023/01/18 10:50:33;;;;;;;8.93;1.50;;;;;;;16.05;37.78;93487.34;4990860;28;20254;-73
2023/01/18 10:53:30;;;;;;;5.78;1.55;;;;;;;16.14;38.05;93479.06;4988825;28;20317;-67
2023/01/18 10:56:18;;;;;;;3.72;1.40;;;;;;;16.13;38.00;93499.47;5014121;28;20326;-68
2023/01/18 10:58:45;;;;;;;5.97;1.50;;;;;;;16.44;37.24;93508.25;4965244;28;20322;-68
2023/01/18 11:01:23;;;;;;;5.88;1.58;;;;;;;16.15;37.66;93478.88;4966375;28;20242;-68
2023/01/18 11:03:54;;;;;;;6.45;1.92;;;;;;;16.26;37.49;93486.06;4968366;28;20200;-68
2023/01/18 11:06:22;;;;;;;5.30;1.50;;;;;;;16.07;38.24;93471.22;5003743;28;20207;-68
2023/01/18 11:08:48;;;;;;;9.98;1.77;;;;;;;16.32;37.31;93473.75;4987851;28;20297;-68
2023/01/18 11:14:29;;;;;;;5.63;1.98;;;;;;;16.63;37.22;93498.44;4989076;28;20231;-69
2023/01/18 11:16:59;;;;;;;7.07;1.80;;;;;;;16.75;37.09;93476.19;4989240;28;20714;-68
2023/01/18 11:19:24;;;;;;;6.45;1.70;;;;;;;16.65;37.23;93473.28;4988048;28;20251;-68
2023/01/18 11:21:51;;;;;;;7.50;1.83;;;;;;;16.71;36.85;93450.34;4991825;28;20235;-68
2023/01/18 11:24:23;;;;;;;7.38;1.98;;;;;;;16.82;36.42;93454.88;5005977;28;20203;-68
2023/01/18 11:26:58;;;;;;;8.82;1.80;;;;;;;17.03;35.86;93481.94;4990184;28;20285;-69
2023/01/18 11:29:44;;;;;;;6.28;1.98;;;;;;;17.06;36.04;93458.38;5006165;28;20223;-69
2023/01/18 11:32:27;;;;;;;7.10;1.73;;;;;;;17.17;35.95;93492.09;4988404;28;20228;-71
2023/01/18 11:34:58;;;;;;;10.98;1.88;;;;;;;16.79;36.31;93463.31;5015775;28;20312;-69
2023/01/18 11:37:34;;;;;;;5.40;1.80;;;;;;;16.98;36.79;93472.81;4974660;28;20264;-69
2023/01/18 11:40:18;;;;;;;7.50;1.65;;;;;;;17.18;35.49;93458.38;5002086;28;20235;-69
2023/01/18 11:42:44;;;;;;;6.72;1.88;;;;;;;17.28;35.44;93463.13;4998871;28;20232;-69
2023/01/18 11:45:16;;;;;;;5.13;1.40;;;;;;;17.35;35.10;93474.47;5004809;28;20254;-71
2023/01/18 11:48:04;;;;;;;6.68;1.92;;;;;;;17.37;35.31;93464.38;5004132;28;20234;-72
2023/01/18 11:50:51;;;;;;;10.68;1.85;;;;;;;17.49;35.19;93475.03;5003836;28;20242;-72
2023/01/18 11:53:37;;;;;;;4.95;1.77;;;;;;;17.45;34.67;93497.78;4966165;28;20228;-67
2023/01/18 11:56:13;;;;;;;8.55;2.15;;;;;;;17.70;34.67;93494.91;4998571;28;20228;-66
2023/01/18 11:58:39;;;;;;;6.45;2.08;;;;;;;17.76;34.56;93502.75;4971237;28;20239;-68
2023/01/18 12:01:59;;;;;;;6.00;1.50;;;;;;;17.71;34.55;93523.09;4970491;28;20239;-67
2023/01/18 12:04:53;;;;;;;5.30;1.50;;;;;;;17.31;35.29;93510.50;4950859;28;20228;-66
2023/01/18 12:07:25;;;;;;;7.05;1.73;;;;;;;17.54;35.17;93499.88;4904327;29;20230;-66
2023/01/18 12:09:54;;;;;;;7.07;1.95;;;;;;;17.78;34.70;93489.22;4901330;29;20214;-67
2023/01/18 12:12:41;;;;;;;4.18;1.60;;;;;;;18.19;33.51;93530.78;4891828;29;20525;-68
2023/01/18 12:15:34;;;;;;;8.00;2.20;;;;;;;18.22;33.26;93543.63;4902754;29;20234;-69
2023/01/18 12:18:31;;;;;;;8.15;2.40;;;;;;;18.20;34.61;93547.56;4909076;29;20233;-69
2023/01/18 12:21:38;;;;;;;8.50;2.00;;;;;;;17.87;33.39;93538.38;4896718;29;20305;-65
2023/01/18 12:24:31;;;;;;;6.07;1.80;;;;;;;17.99;34.55;93535.69;4851275;29;20322;-67
2023/01/18 12:26:59;;;;;;;5.93;1.85;;;;;;;18.59;32.84;93547.81;4854940;29;20224;-68